Time;durP1;ratioP1;P1;durP2;ratioP2;P2;SDS_P1;SDS_P2;PMS_P1;PMS_P2;Temp;Humidity;BMP_temperature;BMP_pressure;BME280_temperature;BME280_humidity;BME280_pressure;Samples;Min_cycle;Max_cycle;Signal;HPM_P1;HPM_P2
2023/07/09 00:02:16;;;;;;;9.23;5.50;;;538.50;2406.40;;;;;;5033557;28;20088;-77
2023/07/09 00:04:42;;;;;;;11.05;5.15;;;538.50;2406.40;;;;;;5015195;28;20030;-77
2023/07/09 00:07:24;;;;;;;10.43;5.38;;;538.50;2406.40;;;;;;5033392;28;20030;-77
2023/07/09 00:09:50;;;;;;;9.93;4.95;;;538.50;2406.40;;;;;;5032677;28;20141;-78
2023/07/09 00:12:17;;;;;;;10.68;5.13;;;538.50;2406.40;;;;;;5017199;28;20030;-77
2023/07/09 00:14:44;;;;;;;9.32;5.15;;;538.40;2406.40;;;;;;5013840;28;20089;-78
2023/07/09 00:17:30;;;;;;;8.38;5.07;;;538.40;2406.40;;;;;;5014022;28;20383;-78
2023/07/09 00:19:57;;;;;;;9.40;5.22;;;538.40;2406.40;;;;;;4996441;28;20026;-77
2023/07/09 00:22:22;;;;;;;11.15;5.10;;;538.40;2406.40;;;;;;5013872;28;20030;-79
2023/07/09 00:24:50;;;;;;;11.45;5.32;;;538.30;2406.40;;;;;;4996192;28;20510;-77
2023/07/09 00:27:21;;;;;;;15.80;5.03;;;538.20;2406.40;;;;;;5018919;28;20380;-80
2023/07/09 00:29:47;;;;;;;8.88;5.13;;;538.20;2406.40;;;;;;5033537;28;20040;-78
2023/07/09 00:32:20;;;;;;;8.85;5.13;;;538.20;2406.40;;;;;;5034129;28;20022;-79
2023/07/09 00:34:49;;;;;;;14.15;5.90;;;538.10;2406.40;;;;;;5033285;28;20045;-78
2023/07/09 00:37:21;;;;;;;10.57;5.35;;;538.10;2406.40;;;;;;5033956;28;20029;-77
2023/07/09 00:39:49;;;;;;;8.43;5.43;;;538.10;2406.40;;;;;;5033472;28;20025;-83
2023/07/09 00:42:20;;;;;;;8.23;5.18;;;538.00;2406.40;;;;;;5033084;28;20411;-77
2023/07/09 00:44:51;;;;;;;14.23;5.72;;;538.00;2406.40;;;;;;5033259;28;20026;-77
2023/07/09 00:47:41;;;;;;;10.55;5.63;;;538.00;2406.40;;;;;;5037366;28;20029;-78
2023/07/09 00:50:33;;;;;;;8.00;5.00;;;538.00;2406.40;;;;;;5037141;28;20383;-77
2023/07/09 00:53:07;;;;;;;12.25;5.50;;;537.90;2406.40;;;;;;5036833;28;20037;-78
2023/07/09 00:55:37;;;;;;;14.05;5.63;;;537.90;2406.40;;;;;;5036846;28;20040;-77
2023/07/09 00:58:07;;;;;;;12.63;5.32;;;537.80;2406.40;;;;;;5030475;28;20032;-79
2023/07/09 01:00:46;;;;;;;9.50;5.10;;;537.70;2406.40;;;;;;5036815;28;20083;-78
2023/07/09 01:03:20;;;;;;;7.95;5.10;;;537.70;2406.40;;;;;;5037085;28;20069;-77
2023/07/09 01:05:51;;;;;;;9.80;5.50;;;537.60;2406.40;;;;;;5036782;28;20044;-77
2023/07/09 01:08:19;;;;;;;11.88;5.95;;;537.60;2406.40;;;;;;5036693;28;20475;-78
2023/07/09 01:10:44;;;;;;;10.15;5.38;;;537.60;2406.40;;;;;;5036816;28;20033;-79
2023/07/09 01:13:10;;;;;;;8.82;5.10;;;537.60;2406.40;;;;;;5036774;28;20025;-77
2023/07/09 01:15:37;;;;;;;9.57;5.00;;;537.60;2406.40;;;;;;5016771;28;20033;-77
2023/07/09 01:18:04;;;;;;;8.45;5.05;;;512.90;2380.80;;;;;;5017042;28;20109;-76
2023/07/09 01:20:30;;;;;;;9.27;5.28;;;512.90;2380.80;;;;;;5017281;28;20464;-77
2023/07/09 01:22:56;;;;;;;11.10;5.32;;;512.80;2380.80;;;;;;5016880;28;20034;-79
2023/07/09 01:25:23;;;;;;;8.25;5.00;;;512.80;2380.80;;;;;;4999478;28;20037;-80
2023/07/09 01:27:50;;;;;;;8.07;5.18;;;512.80;2380.80;;;;;;4999195;28;20495;-79
2023/07/09 01:30:37;;;;;;;10.93;5.53;;;512.80;2380.80;;;;;;5016855;28;20498;-77
2023/07/09 01:33:06;;;;;;;11.13;5.22;;;512.80;2380.80;;;;;;5020177;28;20486;-79
2023/07/09 01:35:34;;;;;;;9.90;5.43;;;512.70;2380.80;;;;;;5034086;28;20510;-82
2023/07/09 01:38:00;;;;;;;9.13;5.35;;;512.50;2380.80;;;;;;5013689;28;20165;-81
2023/07/09 01:43:12;;;;;;;9.43;5.03;;;512.40;2380.80;;;;;;5016629;28;20391;-78
2023/07/09 01:45:38;;;;;;;8.65;5.45;;;512.50;2380.80;;;;;;5016611;28;20030;-79
2023/07/09 01:48:05;;;;;;;13.10;5.25;;;512.50;2380.80;;;;;;5027486;28;20037;-78
2023/07/09 01:50:30;;;;;;;10.35;5.65;;;512.50;2380.80;;;;;;5048528;28;20360;-79
2023/07/09 01:52:57;;;;;;;9.55;4.88;;;512.50;2380.80;;;;;;5056159;28;20024;-77
2023/07/09 01:55:23;;;;;;;13.57;5.90;;;512.40;2380.80;;;;;;5036598;28;20087;-78
2023/07/09 01:57:50;;;;;;;17.13;5.45;;;512.50;2380.80;;;;;;5047857;28;20467;-77
2023/07/09 02:00:17;;;;;;;8.82;5.15;;;512.50;2380.80;;;;;;5054443;28;20036;-80
2023/07/09 02:02:45;;;;;;;8.98;5.15;;;512.50;2380.80;;;;;;5051592;28;20383;-78
2023/07/09 02:05:13;;;;;;;8.77;5.07;;;512.40;2380.80;;;;;;5033707;28;20161;-78
2023/07/09 02:07:40;;;;;;;10.98;5.40;;;512.30;2380.80;;;;;;5034072;28;20041;-80
2023/07/09 02:10:06;;;;;;;12.18;5.18;;;512.30;2380.80;;;;;;5032786;28;20021;-79
2023/07/09 02:12:32;;;;;;;7.57;5.10;;;512.50;2380.80;;;;;;5032253;28;20032;-79
2023/07/09 02:14:57;;;;;;;10.93;5.53;;;512.30;2380.80;;;;;;5033158;28;20029;-77
2023/07/09 02:17:23;;;;;;;11.05;5.75;;;512.30;2380.80;;;;;;5032987;28;20029;-79
2023/07/09 02:19:49;;;;;;;10.35;5.53;;;512.20;2380.80;;;;;;5021652;28;20044;-77
2023/07/09 02:22:15;;;;;;;11.80;6.15;;;512.30;2380.80;;;;;;5013867;28;20025;-77
2023/07/09 02:24:40;;;;;;;11.18;5.88;;;512.20;2380.80;;;;;;5014429;28;20045;-78
2023/07/09 02:27:08;;;;;;;12.20;5.68;;;512.20;2380.80;;;;;;5014283;28;20033;-78
2023/07/09 02:29:34;;;;;;;9.70;5.05;;;512.00;2380.80;;;;;;5027590;28;20033;-78
2023/07/09 02:32:00;;;;;;;10.65;5.60;;;;;;;;;;5034486;28;20383;-78
2023/07/09 02:34:27;;;;;;;12.80;5.80;;;;;;;;;;5034495;28;20049;-81
2023/07/09 02:36:54;;;;;;;9.68;5.22;;;487.20;2380.80;;;;;;5014779;28;20157;-79
2023/07/09 02:39:21;;;;;;;10.95;5.68;;;487.10;2380.80;;;;;;5026057;28;20022;-78
2023/07/09 02:41:47;;;;;;;10.75;5.80;;;486.90;2380.80;;;;;;5018940;28;20033;-78
2023/07/09 02:44:13;;;;;;;12.95;5.63;;;486.80;2380.80;;;;;;5052965;28;20025;-81
2023/07/09 02:46:38;;;;;;;11.48;5.97;;;486.80;2380.80;;;;;;5019768;28;20025;-84
2023/07/09 02:49:05;;;;;;;13.50;6.30;;;486.60;2380.80;;;;;;5043829;28;20453;-82
2023/07/09 02:51:31;;;;;;;8.32;5.18;;;486.60;2380.80;;;;;;5043535;28;20112;-84
2023/07/09 02:53:59;;;;;;;10.60;5.30;;;486.60;2380.80;;;;;;5033311;28;20029;-78
2023/07/09 02:56:25;;;;;;;12.52;5.90;;;486.60;2380.80;;;;;;5029528;28;20029;-80
2023/07/09 02:58:51;;;;;;;10.90;5.55;;;486.60;2380.80;;;;;;5032905;28;20080;-78
2023/07/09 03:01:17;;;;;;;13.82;7.00;;;486.70;2380.80;;;;;;5033492;28;20029;-78
2023/07/09 03:03:43;;;;;;;11.80;7.68;;;486.70;2380.80;;;;;;5032177;28;20036;-81
2023/07/09 03:06:10;;;;;;;12.10;6.35;;;486.70;2380.80;;;;;;5012839;28;20120;-78
2023/07/09 03:08:36;;;;;;;10.55;5.88;;;486.60;2380.80;;;;;;5025251;28;20046;-82
2023/07/09 03:11:13;;;;;;;11.57;5.85;;;486.40;2380.80;;;;;;5032047;28;20079;-77
2023/07/09 03:13:38;;;;;;;10.40;6.10;;;486.50;2380.80;;;;;;5031116;28;20022;-77
2023/07/09 03:16:05;;;;;;;9.05;5.95;;;486.50;2380.80;;;;;;5012296;28;20084;-78
2023/07/09 03:18:31;;;;;;;10.15;5.80;;;486.50;2380.80;;;;;;5030758;28;20058;-78
2023/07/09 03:20:58;;;;;;;11.80;5.93;;;486.60;2380.80;;;;;;5030870;28;20029;-77
2023/07/09 03:23:23;;;;;;;10.52;5.70;;;486.60;2380.80;;;;;;5030873;28;20119;-79
2023/07/09 03:25:49;;;;;;;9.05;5.20;;;486.60;2380.80;;;;;;5019882;28;20109;-78
2023/07/09 03:28:15;;;;;;;12.20;5.30;;;486.50;2380.80;;;;;;5012546;28;20061;-77
2023/07/09 03:30:43;;;;;;;9.23;5.20;;;486.50;2380.80;;;;;;5030048;28;20083;-80
2023/07/09 03:33:10;;;;;;;7.35;4.70;;;486.40;2380.80;;;;;;5029010;28;20029;-79
2023/07/09 03:35:38;;;;;;;8.88;5.30;;;486.40;2380.80;;;;;;5012165;28;20049;-79
2023/07/09 03:38:04;;;;;;;13.10;5.13;;;486.40;2380.80;;;;;;5029338;28;20037;-77
2023/07/09 03:40:30;;;;;;;10.02;5.25;;;461.70;2380.80;;;;;;5029649;28;20025;-79
2023/07/09 03:42:55;;;;;;;8.38;5.22;;;486.40;2380.80;;;;;;5029229;28;20033;-77
2023/07/09 03:45:21;;;;;;;10.63;6.05;;;486.40;2380.80;;;;;;5029471;28;20480;-77
2023/07/09 03:47:47;;;;;;;8.75;5.28;;;486.40;2380.80;;;;;;5011003;28;20044;-77
2023/07/09 03:50:12;;;;;;;8.68;5.05;;;486.50;2380.80;;;;;;5029017;28;20460;-78
2023/07/09 03:52:38;;;;;;;10.07;5.22;;;486.60;2380.80;;;;;;5029076;28;20118;-80
2023/07/09 03:55:05;;;;;;;9.52;5.03;;;486.60;2380.80;;;;;;5029149;28;20387;-77
2023/07/09 03:57:34;;;;;;;9.20;4.82;;;486.60;2380.80;;;;;;5028042;28;20580;-83
2023/07/09 04:00:00;;;;;;;7.72;4.65;;;486.70;2380.80;;;;;;5029618;28;20475;-77
2023/07/09 04:02:26;;;;;;;11.90;5.18;;;486.70;2380.80;;;;;;5028671;28;20053;-77
2023/07/09 04:04:52;;;;;;;15.48;5.50;;;486.80;2380.80;;;;;;5028614;28;20025;-78
2023/07/09 04:07:18;;;;;;;10.15;5.32;;;486.90;2380.80;;;;;;5010712;28;20032;-77
2023/07/09 04:09:44;;;;;;;8.88;5.10;;;486.90;2380.80;;;;;;5010656;28;20033;-78
2023/07/09 04:12:10;;;;;;;10.10;4.85;;;486.90;2380.80;;;;;;5028462;28;20108;-79
2023/07/09 04:14:36;;;;;;;11.13;5.32;;;487.00;2380.80;;;;;;5028454;28;20049;-77
2023/07/09 04:17:02;;;;;;;10.30;5.03;;;487.00;2380.80;;;;;;5027631;28;20056;-79
2023/07/09 04:19:28;;;;;;;12.00;5.20;;;487.10;2380.80;;;;;;5028535;28;20100;-77
2023/07/09 04:21:53;;;;;;;9.82;4.85;;;487.20;2380.80;;;;;;5032207;28;20543;-79
2023/07/09 04:24:20;;;;;;;8.93;5.28;;;487.20;2380.80;;;;;;5015189;28;20025;-78
2023/07/09 04:26:47;;;;;;;8.93;5.22;;;487.20;2380.80;;;;;;5031785;28;20025;-78
2023/07/09 04:29:13;;;;;;;8.48;5.50;;;487.20;2380.80;;;;;;5033086;28;20060;-78
2023/07/09 04:31:41;;;;;;;9.75;5.28;;;487.20;2380.80;;;;;;5033610;28;20040;-79
2023/07/09 04:34:07;;;;;;;11.07;5.60;;;487.30;2380.80;;;;;;5028032;28;20084;-80
2023/07/09 04:36:33;;;;;;;11.23;5.65;;;512.00;2380.80;;;;;;5034072;28;20440;-78
2023/07/09 04:38:59;;;;;;;11.48;5.55;;;487.30;2380.80;;;;;;5033586;28;20049;-82
2023/07/09 04:41:43;;;;;;;9.45;5.72;;;512.10;2380.80;;;;;;5033784;28;20065;-80
2023/07/09 04:44:09;;;;;;;8.30;5.50;;;512.10;2380.80;;;;;;5033140;28;20033;-81
2023/07/09 04:46:35;;;;;;;13.45;5.40;;;512.20;2380.80;;;;;;5016139;28;20034;-81
2023/07/09 04:49:00;;;;;;;8.43;5.32;;;512.50;2380.80;;;;;;5015935;28;20507;-78
2023/07/09 04:51:29;;;;;;;13.82;5.30;;;512.50;2380.80;;;;;;5034203;28;20036;-78
2023/07/09 04:53:55;;;;;;;10.48;5.25;;;512.80;2380.80;;;;;;5033260;28;20036;-78
2023/07/09 04:56:21;;;;;;;13.00;5.47;;;;;;;;;;5015362;28;20025;-78
2023/07/09 04:58:46;;;;;;;8.77;5.10;;;537.60;2406.40;;;;;;5015886;28;20036;-78
2023/07/09 05:01:12;;;;;;;9.90;5.30;;;512.80;2380.80;;;;;;5034610;28;20017;-80
2023/07/09 05:03:38;;;;;;;8.38;5.00;;;512.80;2380.80;;;;;;5013474;28;20085;-80
2023/07/09 05:06:04;;;;;;;8.00;4.78;;;512.90;2380.80;;;;;;5014769;28;20044;-77
2023/07/09 05:08:31;;;;;;;9.50;5.10;;;537.60;2406.40;;;;;;5033123;28;20038;-77
2023/07/09 05:10:57;;;;;;;10.45;5.25;;;537.60;2406.40;;;;;;5032542;28;20067;-77
2023/07/09 05:13:24;;;;;;;10.50;5.10;;;537.70;2406.40;;;;;;5033683;28;20042;-78
2023/07/09 05:15:50;;;;;;;10.75;4.53;;;537.80;2406.40;;;;;;5032643;28;20079;-77
2023/07/09 05:18:17;;;;;;;8.15;4.85;;;537.90;2406.40;;;;;;5032395;28;20079;-78
2023/07/09 05:20:43;;;;;;;10.18;4.72;;;538.00;2406.40;;;;;;5029631;28;20029;-77
2023/07/09 05:23:09;;;;;;;7.05;4.57;;;538.10;2406.40;;;;;;5032037;28;20025;-78
2023/07/09 05:25:35;;;;;;;9.18;4.88;;;538.20;2406.40;;;;;;5032143;28;20471;-79
2023/07/09 05:28:01;;;;;;;6.47;4.70;;;538.40;2406.40;;;;;;5034961;28;20044;-77
2023/07/09 05:30:27;;;;;;;6.45;4.47;;;538.50;2406.40;;;;;;5033991;28;20036;-79
2023/07/09 05:32:55;;;;;;;8.63;4.53;;;563.30;2432.00;;;;;;5032687;28;20108;-80
2023/07/09 05:35:21;;;;;;;11.63;4.88;;;563.40;2432.00;;;;;;5033624;28;20057;-81
2023/07/09 05:37:47;;;;;;;8.45;4.30;;;563.50;2432.00;;;;;;5031341;28;20092;-80
2023/07/09 05:40:13;;;;;;;7.85;4.03;;;563.60;2432.00;;;;;;5029200;28;20025;-78
2023/07/09 05:42:38;;;;;;;7.82;4.63;;;563.80;2432.00;;;;;;5028439;28;20014;-83
2023/07/09 05:45:05;;;;;;;8.23;4.13;;;564.00;2432.00;;;;;;5031877;28;20038;-85
2023/07/09 05:47:31;;;;;;;9.88;4.00;;;564.10;2432.00;;;;;;5033727;28;20068;-80
2023/07/09 05:49:56;;;;;;;7.97;3.95;;;588.80;2432.00;;;;;;5033793;28;20049;-84
2023/07/09 05:52:23;;;;;;;6.63;3.78;;;588.90;2432.00;;;;;;5013979;28;20041;-80
2023/07/09 05:54:51;;;;;;;8.98;3.90;;;589.20;2432.00;;;;;;5014318;28;20038;-81
2023/07/09 05:57:17;;;;;;;7.15;4.20;;;;;;;;;;5033455;28;20025;-80
2023/07/09 05:59:43;;;;;;;9.52;4.03;;;;;;;;;;5034020;28;20021;-79
2023/07/09 06:02:11;;;;;;;13.32;4.20;;;;;;;;;;5033871;28;20372;-80
2023/07/09 06:04:37;;;;;;;6.95;4.10;;;614.60;2432.00;;;;;;5033398;28;20018;-78
2023/07/09 06:07:03;;;;;;;8.18;3.95;;;614.40;2432.00;;;;;;5033331;28;20063;-78
2023/07/09 06:09:30;;;;;;;9.70;4.10;;;614.70;2432.00;;;;;;5030591;28;20025;-78
2023/07/09 06:11:56;;;;;;;8.38;3.90;;;614.70;2432.00;;;;;;5032764;28;20479;-78
2023/07/09 06:14:21;;;;;;;7.63;4.15;;;614.70;2432.00;;;;;;5033074;28;20140;-78
2023/07/09 06:16:47;;;;;;;10.50;3.50;;;;;;;;;;5033634;28;20032;-78
2023/07/09 06:19:13;;;;;;;9.75;4.40;;;;;;;;;;5033129;28;20096;-78
2023/07/09 06:21:40;;;;;;;6.60;3.70;;;640.10;2406.40;;;;;;5033520;28;20029;-77
2023/07/09 06:24:07;;;;;;;10.98;3.58;;;640.30;2252.80;;;;;;5032814;28;20026;-79
2023/07/09 06:26:42;;;;;;;9.13;3.17;;;;;;;;;;5029217;28;20026;-83
2023/07/09 06:29:08;;;;;;;8.05;3.60;;;;;;;;;;5029453;28;20037;-80
2023/07/09 06:31:35;;;;;;;8.15;3.38;;;;;;;;;;5033483;28;20044;-78
2023/07/09 06:34:01;;;;;;;7.43;3.33;;;640.90;2227.20;;;;;;5033842;28;20096;-85
2023/07/09 06:36:27;;;;;;;7.97;3.25;;;;;;;;;;5034188;28;20013;-84
2023/07/09 06:38:53;;;;;;;8.80;3.17;;;665.80;2124.80;;;;;;5033358;28;20060;-78
2023/07/09 06:41:19;;;;;;;4.00;2.70;;;665.70;2099.20;;;;;;5033048;28;20030;-80
2023/07/09 06:43:45;;;;;;;6.97;3.10;;;665.60;2022.40;;;;;;5030912;28;20059;-80
2023/07/09 06:46:18;;;;;;;6.68;2.92;;;665.90;2022.40;;;;;;5032912;28;20032;-79
2023/07/09 06:48:44;;;;;;;7.00;2.95;;;666.00;1996.80;;;;;;5031897;28;20041;-81
2023/07/09 06:51:10;;;;;;;4.00;2.72;;;666.00;2022.40;;;;;;5032677;28;20482;-83
2023/07/09 06:53:36;;;;;;;6.15;2.90;;;666.40;1996.80;;;;;;5014885;28;20128;-82
2023/07/09 06:56:02;;;;;;;6.60;2.78;;;691.20;1971.20;;;;;;5032566;28;20021;-79
2023/07/09 06:58:33;;;;;;;5.05;3.05;;;691.20;1920.00;;;;;;5015461;28;20506;-82
2023/07/09 07:01:03;;;;;;;6.47;2.50;;;;;;;;;;5033476;28;20554;-78
2023/07/09 07:03:29;;;;;;;4.35;2.58;;;691.60;1843.20;;;;;;5032697;28;20553;-79
2023/07/09 07:05:56;;;;;;;5.38;2.60;;;691.50;1843.20;;;;;;5033236;28;20038;-82
2023/07/09 07:08:24;;;;;;;7.22;2.53;;;691.60;1843.20;;;;;;5032759;28;20189;-80
2023/07/09 07:11:02;;;;;;;4.90;2.50;;;691.60;1817.60;;;;;;5032341;28;20025;-81
2023/07/09 07:13:33;;;;;;;7.18;2.78;;;691.50;1817.60;;;;;;5033992;28;20059;-79
2023/07/09 07:15:59;;;;;;;4.25;2.58;;;691.50;1792.00;;;;;;5031657;28;20025;-82
2023/07/09 07:18:26;;;;;;;6.22;2.58;;;;;;;;;;5033186;28;20048;-79
2023/07/09 07:20:52;;;;;;;6.03;2.50;;;;;;;;;;5016644;28;20124;-81
2023/07/09 07:23:18;;;;;;;7.05;2.47;;;716.80;1715.20;;;;;;5032426;28;20030;-86
2023/07/09 07:25:46;;;;;;;4.63;2.47;;;716.90;1689.60;;;;;;5032564;28;20028;-85
2023/07/09 07:28:12;;;;;;;5.70;2.42;;;716.80;1612.80;;;;;;5032439;28;20395;-83
2023/07/09 07:30:38;;;;;;;3.70;2.20;;;692.10;1587.20;;;;;;5032335;28;20025;-85
2023/07/09 07:33:03;;;;;;;4.60;2.50;;;716.80;1587.20;;;;;;5027674;28;20026;-86
2023/07/09 07:35:29;;;;;;;4.45;2.20;;;717.20;1561.60;;;;;;5032647;28;20049;-82
2023/07/09 07:37:55;;;;;;;5.45;2.22;;;717.00;1587.20;;;;;;5033727;28;20021;-82
2023/07/09 07:40:21;;;;;;;6.60;2.40;;;717.40;1587.20;;;;;;5033334;28;20476;-86
2023/07/09 07:46:09;;;;;;;4.63;2.22;;;717.40;1510.40;;;;;;5015697;28;20029;-84
2023/07/09 07:48:34;;;;;;;3.88;2.33;;;717.20;1510.40;;;;;;5013944;28;20037;-83
2023/07/09 07:51:03;;;;;;;4.75;2.10;;;717.30;1510.40;;;;;;5031355;28;20033;-81
2023/07/09 07:53:30;;;;;;;5.82;2.30;;;717.40;1484.80;;;;;;5030631;28;20419;-85
2023/07/09 07:55:56;;;;;;;3.13;2.28;;;717.40;1510.40;;;;;;5031616;28;20032;-86
2023/07/09 07:58:23;;;;;;;5.47;2.20;;;;;;;;;;5030930;28;20464;-82
2023/07/09 08:00:49;;;;;;;6.32;2.33;;;;;;;;;;5031686;28;20024;-82
2023/07/09 08:03:15;;;;;;;3.42;2.33;;;;;;;;;;5010785;28;20084;-86
2023/07/09 08:05:41;;;;;;;4.43;2.35;;;;;;;;;;5012066;28;20427;-80
2023/07/09 08:08:07;;;;;;;3.45;2.00;;;;;;;;;;5012583;28;20037;-81
2023/07/09 08:10:33;;;;;;;7.35;2.50;;;;;;;;;;4995190;28;20054;-82
2023/07/09 08:16:03;;;;;;;4.35;2.20;;;;;;;;;;5013829;28;20033;-83
2023/07/09 08:18:29;;;;;;;4.75;2.40;;;;;;;;;;5012870;28;20029;-83
2023/07/09 08:20:55;;;;;;;5.03;2.25;;;;;;;;;;5019317;28;20032;-81
2023/07/09 08:23:21;;;;;;;5.43;2.28;;;;;;;;;;5024854;28;20025;-85
2023/07/09 08:25:54;;;;;;;4.85;2.40;;;;;;;;;;5031484;28;20029;-81
2023/07/09 08:28:20;;;;;;;5.20;2.45;;;;;;;;;;5030075;28;20073;-86
2023/07/09 08:30:46;;;;;;;5.90;2.38;;;;;;;;;;5031359;28;20589;-87
2023/07/09 08:33:12;;;;;;;5.57;2.53;;;768.50;1408.00;;;;;;5031490;28;20043;-87
2023/07/09 08:35:38;;;;;;;4.93;2.53;;;;;;;;;;5031625;28;20128;-79
2023/07/09 08:38:04;;;;;;;3.90;2.50;;;;;;;;;;5027561;28;20029;-86
2023/07/09 08:40:30;;;;;;;3.78;2.30;;;;;;;;;;5032399;28;20056;-79
2023/07/09 08:46:07;;;;;;;6.63;2.40;;;;;;;;;;5013028;28;20032;-80
2023/07/09 08:48:35;;;;;;;5.35;2.53;;;;;;;;;;5017418;28;20107;-85
2023/07/09 08:51:04;;;;;;;4.72;2.60;;;;;;;;;;5031566;28;20471;-87
2023/07/09 08:53:40;;;;;;;5.72;2.55;;;;;;;;;;5030652;28;20033;-82
2023/07/09 08:56:08;;;;;;;4.68;2.40;;;;;;;;;;5031482;28;20045;-83
2023/07/09 08:58:35;;;;;;;4.00;2.22;;;;;;;;;;5029924;28;20466;-81
2023/07/09 09:01:06;;;;;;;2.78;2.17;;;;;;;;;;5031446;28;20422;-85
2023/07/09 09:03:38;;;;;;;5.57;2.67;;;;;;;;;;5031561;28;20025;-81
2023/07/09 09:06:11;;;;;;;3.88;2.30;;;;;;;;;;5031554;28;20026;-80
2023/07/09 09:08:46;;;;;;;3.90;2.20;;;;;;;;;;5031527;28;20128;-90
2023/07/09 09:11:15;;;;;;;4.43;2.45;;;;;;;;;;5017107;28;20037;-84
2023/07/09 09:14:18;;;;;;;5.72;2.55;;;;;;;;;;5016372;28;20072;-80
2023/07/09 09:16:44;;;;;;;;;;;;;;;;;;5031823;28;20540;-83
2023/07/09 09:19:19;;;;;;;3.45;2.30;;;;;;;;;;5016334;28;20051;-82
2023/07/09 09:21:45;;;;;;;3.42;2.50;;;;;;;;;;5034034;28;20459;-78
2023/07/09 09:24:16;;;;;;;4.53;2.80;;;;;;;;;;5034944;28;20083;-81
2023/07/09 09:26:44;;;;;;;5.22;2.70;;;;;;;;;;5022558;28;20041;-86
2023/07/09 09:29:15;;;;;;;6.38;3.40;;;819.50;1254.40;;;;;;5033915;28;20049;-82
2023/07/09 09:31:47;;;;;;;4.78;3.20;;;819.60;1228.80;;;;;;5035823;28;20077;-81
2023/07/09 09:34:20;;;;;;;3.50;3.03;;;819.70;1177.60;;;;;;5031003;28;20122;-88
2023/07/09 09:36:47;;;;;;;5.50;2.65;;;820.00;1254.40;;;;;;5036023;28;20544;-84
2023/07/09 09:39:13;;;;;;;5.30;2.50;;;;;;;;;;5019173;28;20372;-84
2023/07/09 09:41:40;;;;;;;6.55;2.50;;;819.60;1203.20;;;;;;5033603;28;20021;-82
2023/07/09 09:44:06;;;;;;;6.05;2.58;;;819.20;1228.80;;;;;;5035012;28;20041;-83
2023/07/09 09:46:32;;;;;;;5.15;2.55;;;819.60;1203.20;;;;;;5034284;28;20340;-81
2023/07/09 09:49:03;;;;;;;5.68;2.70;;;819.70;1203.20;;;;;;5033414;28;20354;-82
2023/07/09 09:51:29;;;;;;;4.18;2.50;;;820.10;1228.80;;;;;;5034276;28;20416;-79
2023/07/09 09:54:00;;;;;;;3.92;2.53;;;845.10;1203.20;;;;;;5016426;28;20125;-85
2023/07/09 09:56:36;;;;;;;4.45;2.50;;;820.10;1152.00;;;;;;5028051;28;20038;-84
2023/07/09 09:59:04;;;;;;;7.13;3.05;;;819.70;1152.00;;;;;;5033650;28;20060;-79
2023/07/09 10:01:34;;;;;;;3.35;2.20;;;820.10;1177.60;;;;;;5033480;28;20075;-82
2023/07/09 10:04:02;;;;;;;4.45;2.40;;;844.90;1177.60;;;;;;5033948;28;20030;-80
2023/07/09 10:06:31;;;;;;;6.85;2.50;;;820.10;1152.00;;;;;;5034346;28;20382;-80
2023/07/09 10:09:00;;;;;;;4.07;2.38;;;819.80;1152.00;;;;;;5023495;28;20124;-79
2023/07/09 10:12:03;;;;;;;3.58;2.42;;;819.70;1126.40;;;;;;5034030;28;20802;-83
2023/07/09 10:14:47;;;;;;;5.78;2.17;;;819.70;1177.60;;;;;;4953019;29;20075;-83
2023/07/09 10:17:35;;;;;;;7.78;3.22;;;844.80;1177.60;;;;;;4937244;29;20038;-83
2023/07/09 10:20:46;;;;;;;5.00;2.67;;;844.90;1177.60;;;;;;4953605;29;20039;-80
2023/07/09 10:23:35;;;;;;;4.15;2.75;;;820.00;1152.00;;;;;;4935470;29;20028;-81
2023/07/09 10:26:03;;;;;;;4.00;2.50;;;844.80;1152.00;;;;;;4937940;29;20055;-81
2023/07/09 10:28:54;;;;;;;4.72;2.35;;;845.20;1152.00;;;;;;4950539;29;20047;-82
2023/07/09 10:31:39;;;;;;;5.32;2.20;;;870.40;1126.40;;;;;;4955272;29;20031;-83
2023/07/09 10:34:15;;;;;;;5.15;2.47;;;845.10;1126.40;;;;;;4953643;29;20553;-83
2023/07/09 10:36:50;;;;;;;3.08;2.22;;;845.00;1126.40;;;;;;4953406;29;20046;-81
2023/07/09 10:39:23;;;;;;;3.88;2.30;;;844.80;1152.00;;;;;;4927312;29;20043;-86
2023/07/09 10:41:53;;;;;;;3.47;2.60;;;845.10;1126.40;;;;;;4952761;29;20106;-84
2023/07/09 10:44:25;;;;;;;3.05;2.17;;;844.80;1126.40;;;;;;4956467;28;20460;-84
2023/07/09 10:46:57;;;;;;;4.18;2.30;;;845.20;1100.80;;;;;;4960286;28;20022;-86
2023/07/09 10:49:41;;;;;;;5.88;2.47;;;845.10;1100.80;;;;;;4974250;28;20041;-85
2023/07/09 10:52:10;;;;;;;5.03;3.10;;;845.10;1100.80;;;;;;5025674;28;20032;-85
2023/07/09 10:55:13;;;;;;;3.10;2.30;;;845.10;1152.00;;;;;;5039879;28;20033;-83
2023/07/09 10:57:46;;;;;;;;;;;870.50;1100.80;;;;;;5024928;28;20044;-83
2023/07/09 11:00:21;;;;;;;5.07;2.38;;;870.60;1100.80;;;;;;5037076;28;20046;-81
2023/07/09 11:02:59;;;;;;;3.85;2.30;;;870.80;1075.20;;;;;;5054913;28;20029;-81
2023/07/09 11:05:25;;;;;;;5.13;2.40;;;870.80;1075.20;;;;;;5015432;28;20597;-84
2023/07/09 11:08:20;;;;;;;4.40;2.72;;;870.60;1049.60;;;;;;5035227;28;20044;-82
2023/07/09 11:11:03;;;;;;;3.65;2.50;;;870.40;1075.20;;;;;;5033035;28;20100;-81
2023/07/09 11:13:44;;;;;;;5.70;2.63;;;845.50;1100.80;;;;;;5036155;28;20025;-81
2023/07/09 11:16:14;;;;;;;4.25;2.30;;;;;;;;;;5035257;28;20375;-84
2023/07/09 11:18:40;;;;;;;5.00;2.55;;;870.60;1100.80;;;;;;5017085;28;20033;-82
2023/07/09 11:21:16;;;;;;;2.92;2.30;;;870.70;1075.20;;;;;;5017965;28;20030;-83
2023/07/09 11:23:50;;;;;;;3.65;2.25;;;;;;;;;;4997977;28;20128;-80
2023/07/09 11:26:29;;;;;;;6.20;3.40;;;871.00;1075.20;;;;;;5027754;28;20694;-85
2023/07/09 11:29:12;;;;;;;4.05;2.70;;;870.80;1049.60;;;;;;4996913;28;20045;-83
2023/07/09 11:31:40;;;;;;;5.63;3.85;;;896.10;1024.00;;;;;;5028288;28;20028;-85
2023/07/09 11:34:10;;;;;;;4.70;2.30;;;896.20;1024.00;;;;;;5034516;28;20515;-82
2023/07/09 11:37:11;;;;;;;5.28;2.42;;;871.10;1024.00;;;;;;5014545;28;20057;-81
2023/07/09 11:39:37;;;;;;;4.35;2.30;;;871.00;1024.00;;;;;;4943069;29;20038;-82
2023/07/09 11:42:03;;;;;;;5.40;2.50;;;870.60;1075.20;;;;;;4953997;28;20031;-84
2023/07/09 11:44:33;;;;;;;4.43;2.47;;;871.00;1075.20;;;;;;4948441;29;20031;-85
2023/07/09 11:47:18;;;;;;;4.15;2.28;;;896.10;1075.20;;;;;;4937999;29;20038;-85
2023/07/09 11:50:05;;;;;;;2.47;2.08;;;896.60;998.40;;;;;;4953769;28;20557;-83
2023/07/09 11:52:35;;;;;;;4.68;2.60;;;896.60;972.80;;;;;;4948254;29;20032;-84
2023/07/09 11:55:19;;;;;;;6.57;4.60;;;896.40;998.40;;;;;;4937087;29;20097;-83
2023/07/09 11:57:56;;;;;;;4.55;2.60;;;921.60;1024.00;;;;;;4937701;29;20032;-82
2023/07/09 12:00:22;;;;;;;4.47;2.58;;;921.80;1024.00;;;;;;4940577;29;20429;-81
2023/07/09 12:02:49;;;;;;;4.25;2.20;;;921.60;1024.00;;;;;;4954399;29;20457;-83
2023/07/09 12:05:21;;;;;;;3.72;2.30;;;896.50;1024.00;;;;;;4953992;29;20039;-84
2023/07/09 12:07:47;;;;;;;3.90;2.35;;;896.60;1024.00;;;;;;4953556;29;20084;-82
2023/07/09 12:10:22;;;;;;;3.53;1.90;;;896.80;998.40;;;;;;4953168;29;20055;-82
2023/07/09 12:12:53;;;;;;;8.57;4.97;;;896.80;998.40;;;;;;4953512;29;20485;-82
2023/07/09 12:15:22;;;;;;;4.78;2.30;;;921.70;998.40;;;;;;4968798;28;20115;-83
2023/07/09 12:18:04;;;;;;;3.58;1.90;;;921.60;972.80;;;;;;4996047;28;20026;-85
2023/07/09 12:20:34;;;;;;;6.97;2.10;;;922.00;998.40;;;;;;5016928;28;20096;-84
2023/07/09 12:23:09;;;;;;;2.92;2.20;;;896.60;972.80;;;;;;4998677;28;20046;-83
2023/07/09 12:25:35;;;;;;;4.28;2.35;;;896.50;972.80;;;;;;5014806;28;20536;-84
2023/07/09 12:28:01;;;;;;;3.80;2.17;;;871.00;972.80;;;;;;5014156;28;20116;-82
2023/07/09 12:30:31;;;;;;;2.92;2.05;;;871.10;998.40;;;;;;4998100;28;20026;-82
2023/07/09 12:32:57;;;;;;;3.50;2.10;;;870.80;998.40;;;;;;5015823;28;20486;-84
2023/07/09 12:35:23;;;;;;;5.10;2.17;;;870.80;998.40;;;;;;4981113;28;20046;-86
2023/07/09 12:37:52;;;;;;;2.90;1.98;;;870.60;1024.00;;;;;;4976934;28;20045;-86
2023/07/09 12:40:22;;;;;;;3.75;1.85;;;870.60;998.40;;;;;;4978309;28;20447;-81
2023/07/09 12:42:48;;;;;;;5.47;2.20;;;870.80;972.80;;;;;;4999766;28;20026;-82
2023/07/09 12:45:17;;;;;;;3.60;1.90;;;871.00;972.80;;;;;;5002517;28;20041;-84
2023/07/09 12:47:43;;;;;;;3.42;1.92;;;871.00;947.20;;;;;;5003378;28;20037;-82
2023/07/09 12:50:31;;;;;;;2.72;2.10;;;870.80;947.20;;;;;;4998819;28;20040;-84
2023/07/09 12:53:02;;;;;;;3.20;2.00;;;871.20;921.60;;;;;;5000359;28;20113;-83
2023/07/09 12:55:31;;;;;;;3.92;1.98;;;871.00;921.60;;;;;;4986786;28;20018;-88
2023/07/09 12:57:59;;;;;;;2.45;2.05;;;871.20;947.20;;;;;;5001172;28;20531;-83
2023/07/09 13:00:31;;;;;;;2.67;2.08;;;870.60;947.20;;;;;;4999922;28;20101;-81
2023/07/09 13:02:59;;;;;;;3.28;1.90;;;870.60;947.20;;;;;;4981940;28;20058;-83